Sims, North Carolina
Current Conditions -  °F | °C
As of 1:53 PM on Wednesday 26 Nov 2014 (Local Time) from KRWI Reporting Station
Overcast Overcast  
Wind Chill: 42°   Ceiling: 1200
Heat Index: 47°   Visibility: 10mi
Dew Point: 43°   Wind: 10mph
Humidity: 86%   Direction: 300°WNW
Pressure: 29.9"   Gusts: NA
Location:  35.76°N, 78.06°W
Report Text: KRWI 261853Z AUTO 30009KT 10SM OVC012 08/06 A2990 RMK AO2 SLP126 P0003 T00830061
Loading
Personal Weather Stations






























Interactive Weather Map New forecast layout! Learn more

10-Day Weather Forecast

Advertisements
Track Severe Weather on mobile